Time;durP1;ratioP1;P1;durP2;ratioP2;P2;SDS_P1;SDS_P2;PMS_P1;PMS_P2;Temp;Humidity;BMP_temperature;BMP_pressure;BME280_temperature;BME280_humidity;BME280_pressure;Samples;Min_cycle;Max_cycle;Signal;HPM_P1;HPM_P2
2024/01/26 00:00:05;;;;;;;;;;;;;;;;;;343043;28;1340;-81
2024/01/26 00:00:15;;;;;;;;;;;;;;;;;;342860;28;1207;-81
2024/01/26 00:00:26;;;;;;;;;;;;;;;;;;339860;29;963;-81
2024/01/26 00:00:36;;;;;;;;;;;;;;;;;;340129;29;1228;-81
2024/01/26 00:00:46;;;;;;;;;;;;;;;;;;340466;29;1041;-81
2024/01/26 00:00:56;;;;;;;;;;;;;;;;;;341563;29;954;-81
2024/01/26 00:01:08;;;;;;;;;;;;;;;;;;341642;29;1460;-81
2024/01/26 00:01:18;;;;;;;;;;;;;;;;;;341426;29;1071;-81
2024/01/26 00:01:28;;;;;;;;;;;;;;;;;;341774;29;979;-82
2024/01/26 00:01:39;;;;;;;;;;;;;;;;;;342822;28;1356;-82
2024/01/26 00:01:49;;;;;;;;;;;;;;;;;;343114;28;987;-82
2024/01/26 00:02:01;;;;;;;;;;;;;;;;;;342913;28;974;-81
2024/01/26 00:02:11;;;;;;;;;;;;;;;;;;341724;29;1380;-81
2024/01/26 00:02:21;;;;;;;;;;;;;;;;;;341600;29;967;-81
2024/01/26 00:02:32;;;;;;;;;;;;;;;;;;342473;28;1090;-81
2024/01/26 00:02:42;;;;;;;;;;;;;;;;;;342895;28;867;-81
2024/01/26 00:02:52;;;;;;;;;;;;;;;;;;341774;29;979;-81
2024/01/26 00:03:02;;;;;;;;;;;;;;;;;;340712;29;1929;-81
2024/01/26 00:03:13;;;;;;;;;;;;;;;;;;341784;28;978;-81
2024/01/26 00:03:23;;;;;;;;;;;;;;;;;;341463;29;1320;-81
2024/01/26 00:03:33;;;;;;;;;;;;;;;;;;341740;28;1018;-81
2024/01/26 00:03:43;;;;;;;;;;;;;;;;;;342842;28;1042;-81
2024/01/26 00:03:54;;;;;;;;;;;;;;;;;;341662;29;1525;-81
2024/01/26 00:04:04;;;;;;;;;;;;;;;;;;341405;29;1269;-81
2024/01/26 00:04:14;;;;;;;;;;;;;;;;;;341613;28;1308;-81
2024/01/26 00:04:24;;;;;;;;;;;;;;;;;;341431;29;1605;-81
2024/01/26 00:04:35;;;;;;;;;;;;;;;;;;341746;29;1105;-81
2024/01/26 00:04:45;;;;;;;;;;;;;;;;;;342788;28;1308;-81
2024/01/26 00:04:55;;;;;;;;;;;;;;;;;;343108;28;860;-81
2024/01/26 00:05:06;;;;;;;;;;;;;;;;;;341512;29;962;-81
2024/01/26 00:05:16;;;;;;;;;;;;;;;;;;340337;29;1275;-81
2024/01/26 00:05:26;;;;;;;;;;;;;;;;;;341509;29;1182;-81
2024/01/26 00:05:37;;;;;;;;;;;;;;;;;;343113;28;989;-81
2024/01/26 00:05:47;;;;;;;;;;;;;;;;;;341574;29;828;-81
2024/01/26 00:05:57;;;;;;;;;;;;;;;;;;341685;29;955;-81
2024/01/26 00:06:08;;;;;;;;;;;;;;;;;;341522;29;1193;-81
2024/01/26 00:06:18;;;;;;;;;;;;;;;;;;341788;29;1088;-81
2024/01/26 00:06:28;;;;;;;;;;;;;;;;;;342910;28;959;-81
2024/01/26 00:06:39;;;;;;;;;;;;;;;;;;343108;28;979;-81
2024/01/26 00:06:49;;;;;;;;;;;;;;;;;;342961;28;927;-81
2024/01/26 00:06:59;;;;;;;;;;;;;;;;;;343076;28;1018;-81
2024/01/26 00:07:09;;;;;;;;;;;;;;;;;;340196;29;1572;-81
2024/01/26 00:07:19;;;;;;;;;;;;;;;;;;340455;29;975;-81
2024/01/26 00:07:31;;;;;;;;;;;;;;;;;;341060;29;868;-81
2024/01/26 00:07:41;;;;;;;;;;;;;;;;;;342196;28;1026;-81
2024/01/26 00:07:51;;;;;;;;;;;;;;;;;;343859;28;1265;-81
2024/01/26 00:08:02;;;;;;;;;;;;;;;;;;344290;28;1410;-81
2024/01/26 00:08:14;;;;;;;;;;;;;;;;;;344124;28;1331;-81
2024/01/26 00:08:24;;;;;;;;;;;;;;;;;;344444;28;987;-81
2024/01/26 00:08:34;;;;;;;;;;;;;;;;;;342747;28;1549;-81
2024/01/26 00:08:44;;;;;;;;;;;;;;;;;;343141;28;1033;-81
2024/01/26 00:08:54;;;;;;;;;;;;;;;;;;342856;28;966;-81
2024/01/26 00:09:09;;;;;;;;;;;;;;;;;;343692;28;867;-81
2024/01/26 00:09:21;;;;;;;;;;;;;;;;;;342842;28;1336;-81
2024/01/26 00:09:31;;;;;;;;;;;;;;;;;;344266;28;1287;-81
2024/01/26 00:09:42;;;;;;;;;;;;;;;;;;344218;28;982;-81
2024/01/26 00:09:52;;;;;;;;;;;;;;;;;;344323;28;1403;-81
2024/01/26 00:10:02;;;;;;;;;;;;;;;;;;344243;28;998;-81
2024/01/26 00:10:12;;;;;;;;;;;;;;;;;;343124;28;937;-81
2024/01/26 00:10:23;;;;;;;;;;;;;;;;;;342896;28;947;-81
2024/01/26 00:10:33;;;;;;;;;;;;;;;;;;342636;28;1379;-81
2024/01/26 00:10:43;;;;;;;;;;;;;;;;;;342701;28;1442;-81
2024/01/26 00:10:53;;;;;;;;;;;;;;;;;;343186;28;1038;-81
2024/01/26 00:11:03;;;;;;;;;;;;;;;;;;342794;28;1172;-82
2024/01/26 00:11:17;;;;;;;;;;;;;;;;;;343227;28;1319;-82
2024/01/26 00:11:28;;;;;;;;;;;;;;;;;;344764;28;959;-82
2024/01/26 00:11:38;;;;;;;;;;;;;;;;;;345855;28;927;-82
2024/01/26 00:11:49;;;;;;;;;;;;;;;;;;344772;28;1253;-82
2024/01/26 00:11:59;;;;;;;;;;;;;;;;;;340701;29;1380;-82
2024/01/26 00:12:09;;;;;;;;;;;;;;;;;;341574;29;987;-82
2024/01/26 00:12:19;;;;;;;;;;;;;;;;;;341679;29;932;-82
2024/01/26 00:12:30;;;;;;;;;;;;;;;;;;338978;29;884;-82
2024/01/26 00:12:40;;;;;;;;;;;;;;;;;;338735;29;1583;-81
2024/01/26 00:12:51;;;;;;;;;;;;;;;;;;338920;29;971;-81
2024/01/26 00:13:02;;;;;;;;;;;;;;;;;;341695;29;1205;-81
2024/01/26 00:13:13;;;;;;;;;;;;;;;;;;341427;29;1218;-81
2024/01/26 00:13:24;;;;;;;;;;;;;;;;;;341736;29;1096;-81
2024/01/26 00:13:34;;;;;;;;;;;;;;;;;;341452;29;1202;-81
2024/01/26 00:13:44;;;;;;;;;;;;;;;;;;342820;28;1311;-81
2024/01/26 00:13:54;;;;;;;;;;;;;;;;;;338908;29;1340;-81
2024/01/26 00:14:05;;;;;;;;;;;;;;;;;;339157;29;1506;-81
2024/01/26 00:14:15;;;;;;;;;;;;;;;;;;341185;29;1612;-81
2024/01/26 00:14:25;;;;;;;;;;;;;;;;;;341229;29;1383;-81
2024/01/26 00:14:35;;;;;;;;;;;;;;;;;;340949;29;1263;-81
2024/01/26 00:14:46;;;;;;;;;;;;;;;;;;341489;29;1328;-81
2024/01/26 00:14:56;;;;;;;;;;;;;;;;;;341499;29;1077;-81
2024/01/26 00:15:07;;;;;;;;;;;;;;;;;;341683;28;1296;-81
2024/01/26 00:15:17;;;;;;;;;;;;;;;;;;342865;28;970;-81
2024/01/26 00:15:27;;;;;;;;;;;;;;;;;;343126;28;1006;-82
2024/01/26 00:15:37;;;;;;;;;;;;;;;;;;342928;28;836;-82
2024/01/26 00:15:47;;;;;;;;;;;;;;;;;;343113;28;1018;-82
2024/01/26 00:15:58;;;;;;;;;;;;;;;;;;341274;28;1980;-82
2024/01/26 00:16:08;;;;;;;;;;;;;;;;;;342581;28;1303;-82
2024/01/26 00:16:18;;;;;;;;;;;;;;;;;;340115;29;1214;-82
2024/01/26 00:16:28;;;;;;;;;;;;;;;;;;340461;29;859;-82
2024/01/26 00:16:39;;;;;;;;;;;;;;;;;;341482;29;975;-82
2024/01/26 00:16:49;;;;;;;;;;;;;;;;;;341850;28;1332;-82
2024/01/26 00:16:59;;;;;;;;;;;;;;;;;;341128;28;1667;-81
2024/01/26 00:17:09;;;;;;;;;;;;;;;;;;341557;29;1452;-81
2024/01/26 00:17:20;;;;;;;;;;;;;;;;;;340139;29;1177;-81
2024/01/26 00:17:30;;;;;;;;;;;;;;;;;;338912;29;1330;-81
2024/01/26 00:17:40;;;;;;;;;;;;;;;;;;338934;29;995;-81
2024/01/26 00:17:50;;;;;;;;;;;;;;;;;;338758;29;1798;-81
2024/01/26 00:18:01;;;;;;;;;;;;;;;;;;341316;29;1492;-81
2024/01/26 00:18:11;;;;;;;;;;;;;;;;;;341798;29;1010;-81
2024/01/26 00:18:21;;;;;;;;;;;;;;;;;;341494;29;1026;-81
2024/01/26 00:18:31;;;;;;;;;;;;;;;;;;341732;29;998;-81
2024/01/26 00:18:42;;;;;;;;;;;;;;;;;;341621;29;1037;-81
2024/01/26 00:18:52;;;;;;;;;;;;;;;;;;341726;29;971;-81
2024/01/26 00:19:03;;;;;;;;;;;;;;;;;;341475;28;1286;-82
2024/01/26 00:19:13;;;;;;;;;;;;;;;;;;342102;28;1051;-82
2024/01/26 00:19:24;;;;;;;;;;;;;;;;;;343302;28;1057;-82
2024/01/26 00:19:37;;;;;;;;;;;;;;;;;;344153;28;1272;-82
2024/01/26 00:19:47;;;;;;;;;;;;;;;;;;344203;28;1006;-82
2024/01/26 00:19:57;;;;;;;;;;;;;;;;;;345239;28;978;-82
2024/01/26 00:20:09;;;;;;;;;;;;;;;;;;345580;28;836;-82
2024/01/26 00:20:19;;;;;;;;;;;;;;;;;;345745;28;974;-82
2024/01/26 00:20:29;;;;;;;;;;;;;;;;;;343002;28;1359;-82
2024/01/26 00:20:39;;;;;;;;;;;;;;;;;;344669;28;1460;-82
2024/01/26 00:20:50;;;;;;;;;;;;;;;;;;344154;28;947;-82
2024/01/26 00:21:00;;;;;;;;;;;;;;;;;;343083;28;1014;-82
2024/01/26 00:21:10;;;;;;;;;;;;;;;;;;342785;28;1133;-82
2024/01/26 00:21:20;;;;;;;;;;;;;;;;;;341672;29;1273;-82
2024/01/26 00:21:31;;;;;;;;;;;;;;;;;;341186;28;1018;-81
2024/01/26 00:21:41;;;;;;;;;;;;;;;;;;342995;28;991;-82
2024/01/26 00:21:51;;;;;;;;;;;;;;;;;;342821;28;1037;-81
2024/01/26 00:22:02;;;;;;;;;;;;;;;;;;343086;28;821;-81
2024/01/26 00:22:12;;;;;;;;;;;;;;;;;;342786;28;1219;-82
2024/01/26 00:22:22;;;;;;;;;;;;;;;;;;344379;28;959;-82
2024/01/26 00:22:32;;;;;;;;;;;;;;;;;;342912;28;1179;-82
2024/01/26 00:22:43;;;;;;;;;;;;;;;;;;343088;28;1005;-82
2024/01/26 00:22:53;;;;;;;;;;;;;;;;;;342680;28;1153;-82
2024/01/26 00:23:03;;;;;;;;;;;;;;;;;;343006;28;816;-82
2024/01/26 00:23:13;;;;;;;;;;;;;;;;;;341684;29;1414;-82
2024/01/26 00:23:24;;;;;;;;;;;;;;;;;;341294;29;1454;-82
2024/01/26 00:23:35;;;;;;;;;;;;;;;;;;341741;28;844;-82
2024/01/26 00:23:45;;;;;;;;;;;;;;;;;;341692;29;931;-82
2024/01/26 00:23:56;;;;;;;;;;;;;;;;;;341712;29;1034;-81
2024/01/26 00:24:06;;;;;;;;;;;;;;;;;;340159;29;1184;-81
2024/01/26 00:24:16;;;;;;;;;;;;;;;;;;340432;29;991;-81
2024/01/26 00:24:26;;;;;;;;;;;;;;;;;;340301;29;1059;-81
2024/01/26 00:24:36;;;;;;;;;;;;;;;;;;343089;28;1017;-81
2024/01/26 00:24:47;;;;;;;;;;;;;;;;;;341819;28;1493;-81
2024/01/26 00:24:57;;;;;;;;;;;;;;;;;;341615;29;1512;-81
2024/01/26 00:25:07;;;;;;;;;;;;;;;;;;341877;28;1291;-81
2024/01/26 00:25:18;;;;;;;;;;;;;;;;;;341608;29;1307;-81
2024/01/26 00:25:28;;;;;;;;;;;;;;;;;;341390;29;1145;-81
2024/01/26 00:25:38;;;;;;;;;;;;;;;;;;340320;29;1294;-82
2024/01/26 00:25:48;;;;;;;;;;;;;;;;;;340237;29;995;-82
2024/01/26 00:25:58;;;;;;;;;;;;;;;;;;340407;29;1046;-82
2024/01/26 00:26:08;;;;;;;;;;;;;;;;;;340122;29;1288;-82
2024/01/26 00:26:19;;;;;;;;;;;;;;;;;;339155;29;809;-82
2024/01/26 00:26:29;;;;;;;;;;;;;;;;;;340079;29;967;-82
2024/01/26 00:26:40;;;;;;;;;;;;;;;;;;340495;29;972;-82
2024/01/26 00:26:50;;;;;;;;;;;;;;;;;;340089;29;943;-82
2024/01/26 00:27:00;;;;;;;;;;;;;;;;;;340351;29;951;-82
2024/01/26 00:27:11;;;;;;;;;;;;;;;;;;340138;29;1297;-82
2024/01/26 00:27:21;;;;;;;;;;;;;;;;;;340463;29;789;-82
2024/01/26 00:27:31;;;;;;;;;;;;;;;;;;340084;29;1194;-82
2024/01/26 00:27:41;;;;;;;;;;;;;;;;;;339047;29;1189;-82
2024/01/26 00:27:51;;;;;;;;;;;;;;;;;;338936;29;867;-81
2024/01/26 00:28:04;;;;;;;;;;;;;;;;;;339091;29;1022;-81
2024/01/26 00:28:14;;;;;;;;;;;;;;;;;;338869;29;1014;-82
2024/01/26 00:28:24;;;;;;;;;;;;;;;;;;340292;29;1550;-82
2024/01/26 00:28:34;;;;;;;;;;;;;;;;;;338160;29;1157;-82
2024/01/26 00:28:45;;;;;;;;;;;;;;;;;;339061;29;1039;-81
2024/01/26 00:28:55;;;;;;;;;;;;;;;;;;339008;29;1038;-81
2024/01/26 00:29:06;;;;;;;;;;;;;;;;;;339093;29;883;-81
2024/01/26 00:29:16;;;;;;;;;;;;;;;;;;340233;29;1199;-81
2024/01/26 00:29:27;;;;;;;;;;;;;;;;;;340332;29;1270;-81
2024/01/26 00:29:37;;;;;;;;;;;;;;;;;;340212;29;994;-81
2024/01/26 00:29:47;;;;;;;;;;;;;;;;;;340372;29;815;-81
2024/01/26 00:29:57;;;;;;;;;;;;;;;;;;340038;29;1522;-81
2024/01/26 00:30:07;;;;;;;;;;;;;;;;;;340443;29;1030;-81
2024/01/26 00:30:18;;;;;;;;;;;;;;;;;;341377;29;1065;-81
2024/01/26 00:30:28;;;;;;;;;;;;;;;;;;341704;28;1018;-81
2024/01/26 00:30:38;;;;;;;;;;;;;;;;;;341514;29;1073;-81
2024/01/26 00:30:48;;;;;;;;;;;;;;;;;;341755;29;951;-81
2024/01/26 00:30:58;;;;;;;;;;;;;;;;;;341458;29;991;-81
2024/01/26 00:31:13;;;;;;;;;;;;;;;;;;341700;28;823;-81
2024/01/26 00:31:23;;;;;;;;;;;;;;;;;;341535;29;1066;-81
2024/01/26 00:31:33;;;;;;;;;;;;;;;;;;341736;29;994;-81
2024/01/26 00:31:44;;;;;;;;;;;;;;;;;;341479;29;1220;-81
2024/01/26 00:31:54;;;;;;;;;;;;;;;;;;341563;28;1077;-81
2024/01/26 00:32:05;;;;;;;;;;;;;;;;;;341517;29;963;-81
2024/01/26 00:32:15;;;;;;;;;;;;;;;;;;341659;29;1264;-81
2024/01/26 00:32:25;;;;;;;;;;;;;;;;;;341560;29;1010;-81
2024/01/26 00:32:35;;;;;;;;;;;;;;;;;;342205;28;1610;-81
2024/01/26 00:32:45;;;;;;;;;;;;;;;;;;340153;29;1030;-81
2024/01/26 00:32:56;;;;;;;;;;;;;;;;;;341775;29;939;-82
2024/01/26 00:33:07;;;;;;;;;;;;;;;;;;342925;28;967;-82
2024/01/26 00:33:17;;;;;;;;;;;;;;;;;;343093;28;809;-81
2024/01/26 00:33:27;;;;;;;;;;;;;;;;;;341460;29;1198;-81
2024/01/26 00:33:37;;;;;;;;;;;;;;;;;;342381;28;1528;-81
2024/01/26 00:33:48;;;;;;;;;;;;;;;;;;342791;28;1398;-81
2024/01/26 00:33:58;;;;;;;;;;;;;;;;;;342187;28;1549;-81
2024/01/26 00:34:08;;;;;;;;;;;;;;;;;;341493;28;1320;-81
2024/01/26 00:34:18;;;;;;;;;;;;;;;;;;341735;29;970;-81
2024/01/26 00:34:29;;;;;;;;;;;;;;;;;;340161;29;987;-81
2024/01/26 00:34:39;;;;;;;;;;;;;;;;;;340337;29;1030;-82
2024/01/26 00:34:49;;;;;;;;;;;;;;;;;;341448;29;1188;-82
2024/01/26 00:34:59;;;;;;;;;;;;;;;;;;341681;28;1348;-82
2024/01/26 00:35:09;;;;;;;;;;;;;;;;;;341549;28;1409;-81
2024/01/26 00:35:20;;;;;;;;;;;;;;;;;;341474;29;1451;-82
2024/01/26 00:35:30;;;;;;;;;;;;;;;;;;341503;29;1312;-82
2024/01/26 00:35:40;;;;;;;;;;;;;;;;;;341046;29;958;-82
2024/01/26 00:35:50;;;;;;;;;;;;;;;;;;341650;29;911;-82
2024/01/26 00:36:00;;;;;;;;;;;;;;;;;;341476;28;1891;-81
2024/01/26 00:36:11;;;;;;;;;;;;;;;;;;341685;29;1638;-82
2024/01/26 00:36:22;;;;;;;;;;;;;;;;;;341697;29;922;-82
2024/01/26 00:36:32;;;;;;;;;;;;;;;;;;341693;29;959;-82
2024/01/26 00:36:44;;;;;;;;;;;;;;;;;;340696;28;1371;-82
2024/01/26 00:36:54;;;;;;;;;;;;;;;;;;342901;28;935;-81
2024/01/26 00:37:04;;;;;;;;;;;;;;;;;;344309;28;1307;-81
2024/01/26 00:37:14;;;;;;;;;;;;;;;;;;342251;28;1013;-81
2024/01/26 00:37:25;;;;;;;;;;;;;;;;;;341642;29;840;-81
2024/01/26 00:37:35;;;;;;;;;;;;;;;;;;343052;28;1075;-81
2024/01/26 00:37:45;;;;;;;;;;;;;;;;;;342920;28;994;-82
2024/01/26 00:37:55;;;;;;;;;;;;;;;;;;343044;28;1598;-82
2024/01/26 00:38:06;;;;;;;;;;;;;;;;;;341427;29;951;-81
2024/01/26 00:38:16;;;;;;;;;;;;;;;;;;341667;28;1050;-81
2024/01/26 00:38:26;;;;;;;;;;;;;;;;;;341345;29;1010;-81
2024/01/26 00:38:36;;;;;;;;;;;;;;;;;;342841;28;1170;-81
2024/01/26 00:38:46;;;;;;;;;;;;;;;;;;342234;28;1372;-82
2024/01/26 00:38:56;;;;;;;;;;;;;;;;;;343766;28;1248;-82
2024/01/26 00:39:07;;;;;;;;;;;;;;;;;;344222;28;1033;-82
2024/01/26 00:39:18;;;;;;;;;;;;;;;;;;343112;28;844;-82
2024/01/26 00:39:28;;;;;;;;;;;;;;;;;;344042;28;1457;-82
2024/01/26 00:39:38;;;;;;;;;;;;;;;;;;344383;28;1062;-82
2024/01/26 00:39:48;;;;;;;;;;;;;;;;;;342888;28;1350;-82
2024/01/26 00:39:58;;;;;;;;;;;;;;;;;;343062;28;1058;-82
2024/01/26 00:40:09;;;;;;;;;;;;;;;;;;342825;28;995;-82
2024/01/26 00:40:19;;;;;;;;;;;;;;;;;;343941;28;1355;-81
2024/01/26 00:40:30;;;;;;;;;;;;;;;;;;344245;28;1322;-81
2024/01/26 00:40:40;;;;;;;;;;;;;;;;;;344431;28;987;-81
2024/01/26 00:40:51;;;;;;;;;;;;;;;;;;342795;28;1090;-81
2024/01/26 00:41:01;;;;;;;;;;;;;;;;;;343048;28;1045;-81
2024/01/26 00:41:11;;;;;;;;;;;;;;;;;;342487;28;1181;-81
2024/01/26 00:41:21;;;;;;;;;;;;;;;;;;343266;28;1250;-81
2024/01/26 00:41:31;;;;;;;;;;;;;;;;;;344192;28;957;-81
2024/01/26 00:41:42;;;;;;;;;;;;;;;;;;344373;28;990;-81
2024/01/26 00:41:52;;;;;;;;;;;;;;;;;;342768;28;935;-81
2024/01/26 00:42:02;;;;;;;;;;;;;;;;;;342908;28;1366;-81
2024/01/26 00:42:13;;;;;;;;;;;;;;;;;;342819;28;1070;-81
2024/01/26 00:42:23;;;;;;;;;;;;;;;;;;343085;28;982;-81
2024/01/26 00:42:33;;;;;;;;;;;;;;;;;;342773;28;1203;-81
2024/01/26 00:42:43;;;;;;;;;;;;;;;;;;340973;28;1017;-81
2024/01/26 00:42:53;;;;;;;;;;;;;;;;;;341492;29;975;-81
2024/01/26 00:43:03;;;;;;;;;;;;;;;;;;341668;29;1078;-81
2024/01/26 00:43:14;;;;;;;;;;;;;;;;;;341489;29;1014;-81
2024/01/26 00:43:24;;;;;;;;;;;;;;;;;;340344;29;1318;-81
2024/01/26 00:43:34;;;;;;;;;;;;;;;;;;340174;29;1092;-81
2024/01/26 00:43:45;;;;;;;;;;;;;;;;;;340304;29;1037;-81
2024/01/26 00:43:55;;;;;;;;;;;;;;;;;;340179;29;907;-81
2024/01/26 00:44:05;;;;;;;;;;;;;;;;;;340422;29;1003;-81
2024/01/26 00:44:15;;;;;;;;;;;;;;;;;;340222;29;1022;-82
2024/01/26 00:44:25;;;;;;;;;;;;;;;;;;340917;28;1514;-82
2024/01/26 00:44:37;;;;;;;;;;;;;;;;;;341540;29;1470;-82
2024/01/26 00:44:47;;;;;;;;;;;;;;;;;;341680;29;982;-82
2024/01/26 00:44:57;;;;;;;;;;;;;;;;;;341549;29;958;-82
2024/01/26 00:45:07;;;;;;;;;;;;;;;;;;341698;29;1026;-82
2024/01/26 00:45:17;;;;;;;;;;;;;;;;;;340663;28;1407;-82
2024/01/26 00:45:28;;;;;;;;;;;;;;;;;;342817;28;1351;-82
2024/01/26 00:45:39;;;;;;;;;;;;;;;;;;341588;29;1421;-82
2024/01/26 00:45:49;;;;;;;;;;;;;;;;;;342890;28;1200;-82
2024/01/26 00:45:59;;;;;;;;;;;;;;;;;;343007;28;1014;-82
2024/01/26 00:46:09;;;;;;;;;;;;;;;;;;342946;28;1263;-82
2024/01/26 00:46:20;;;;;;;;;;;;;;;;;;341664;29;1005;-82
2024/01/26 00:46:30;;;;;;;;;;;;;;;;;;341609;29;1042;-82
2024/01/26 00:46:40;;;;;;;;;;;;;;;;;;340469;29;975;-82
2024/01/26 00:46:51;;;;;;;;;;;;;;;;;;341568;29;994;-82
2024/01/26 00:47:01;;;;;;;;;;;;;;;;;;341513;28;1259;-82
2024/01/26 00:47:11;;;;;;;;;;;;;;;;;;342824;28;931;-82
2024/01/26 00:47:21;;;;;;;;;;;;;;;;;;342132;28;1773;-82
2024/01/26 00:47:32;;;;;;;;;;;;;;;;;;342570;28;1371;-81
2024/01/26 00:47:42;;;;;;;;;;;;;;;;;;342975;28;1375;-81
2024/01/26 00:47:52;;;;;;;;;;;;;;;;;;342770;28;1170;-81
2024/01/26 00:48:02;;;;;;;;;;;;;;;;;;343074;28;1089;-81
2024/01/26 00:48:13;;;;;;;;;;;;;;;;;;343460;28;1300;-81
2024/01/26 00:48:23;;;;;;;;;;;;;;;;;;344356;28;1006;-81
2024/01/26 00:48:33;;;;;;;;;;;;;;;;;;343639;28;1017;-81
2024/01/26 00:48:44;;;;;;;;;;;;;;;;;;344292;28;1290;-81
2024/01/26 00:48:54;;;;;;;;;;;;;;;;;;344123;28;971;-81
2024/01/26 00:49:04;;;;;;;;;;;;;;;;;;341885;28;1420;-81
2024/01/26 00:49:14;;;;;;;;;;;;;;;;;;340090;29;1149;-81
2024/01/26 00:49:25;;;;;;;;;;;;;;;;;;340384;29;987;-81
2024/01/26 00:49:35;;;;;;;;;;;;;;;;;;338821;29;976;-81
2024/01/26 00:49:45;;;;;;;;;;;;;;;;;;339779;29;947;-81
2024/01/26 00:49:55;;;;;;;;;;;;;;;;;;340193;29;1055;-81
2024/01/26 00:50:06;;;;;;;;;;;;;;;;;;340425;29;923;-81
2024/01/26 00:50:17;;;;;;;;;;;;;;;;;;341054;29;1058;-81
2024/01/26 00:50:27;;;;;;;;;;;;;;;;;;341621;29;1395;-81
2024/01/26 00:50:37;;;;;;;;;;;;;;;;;;339989;29;1432;-81
2024/01/26 00:50:50;;;;;;;;;;;;;;;;;;340321;29;1022;-81
2024/01/26 00:51:00;;;;;;;;;;;;;;;;;;341444;29;1110;-81
2024/01/26 00:51:11;;;;;;;;;;;;;;;;;;343038;28;951;-81
2024/01/26 00:51:21;;;;;;;;;;;;;;;;;;341402;29;1332;-82
2024/01/26 00:51:31;;;;;;;;;;;;;;;;;;343035;28;995;-82
2024/01/26 00:51:42;;;;;;;;;;;;;;;;;;342862;28;863;-82
2024/01/26 00:51:52;;;;;;;;;;;;;;;;;;343054;28;1014;-82
2024/01/26 00:52:03;;;;;;;;;;;;;;;;;;342837;28;1022;-82
2024/01/26 00:52:14;;;;;;;;;;;;;;;;;;343069;28;1041;-82
2024/01/26 00:52:24;;;;;;;;;;;;;;;;;;342751;28;971;-82
2024/01/26 00:52:34;;;;;;;;;;;;;;;;;;343073;28;1002;-82
2024/01/26 00:52:44;;;;;;;;;;;;;;;;;;342454;28;1476;-82
2024/01/26 00:52:54;;;;;;;;;;;;;;;;;;341755;29;1057;-82
2024/01/26 00:53:05;;;;;;;;;;;;;;;;;;342789;28;1049;-81
2024/01/26 00:53:16;;;;;;;;;;;;;;;;;;343370;28;1030;-81
2024/01/26 00:53:26;;;;;;;;;;;;;;;;;;345491;28;776;-81
2024/01/26 00:53:36;;;;;;;;;;;;;;;;;;345575;28;1449;-82
2024/01/26 00:53:47;;;;;;;;;;;;;;;;;;345552;28;974;-82
2024/01/26 00:53:57;;;;;;;;;;;;;;;;;;344188;28;1626;-82
2024/01/26 00:54:07;;;;;;;;;;;;;;;;;;343791;28;1501;-82
2024/01/26 00:54:18;;;;;;;;;;;;;;;;;;344256;28;1071;-82
2024/01/26 00:54:28;;;;;;;;;;;;;;;;;;344217;28;840;-81
2024/01/26 00:54:38;;;;;;;;;;;;;;;;;;343063;28;1011;-81
2024/01/26 00:54:48;;;;;;;;;;;;;;;;;;342792;28;1045;-81
2024/01/26 00:54:59;;;;;;;;;;;;;;;;;;343034;28;982;-82
2024/01/26 00:55:09;;;;;;;;;;;;;;;;;;342902;28;769;-82
2024/01/26 00:55:19;;;;;;;;;;;;;;;;;;342695;28;990;-82
2024/01/26 00:55:30;;;;;;;;;;;;;;;;;;342406;28;1414;-82
2024/01/26 00:55:40;;;;;;;;;;;;;;;;;;342885;28;1393;-82
2024/01/26 00:55:50;;;;;;;;;;;;;;;;;;341486;29;1061;-82
2024/01/26 00:56:00;;;;;;;;;;;;;;;;;;341727;28;1914;-82
2024/01/26 00:56:10;;;;;;;;;;;;;;;;;;342828;28;1014;-81
2024/01/26 00:56:21;;;;;;;;;;;;;;;;;;343023;28;856;-81
2024/01/26 00:56:31;;;;;;;;;;;;;;;;;;343120;28;959;-81
2024/01/26 00:56:41;;;;;;;;;;;;;;;;;;344035;28;1006;-81
2024/01/26 00:56:51;;;;;;;;;;;;;;;;;;343982;28;975;-81
2024/01/26 00:57:03;;;;;;;;;;;;;;;;;;343021;28;853;-81
2024/01/26 00:57:13;;;;;;;;;;;;;;;;;;341465;28;959;-81
2024/01/26 00:57:24;;;;;;;;;;;;;;;;;;341755;29;971;-81
2024/01/26 00:57:34;;;;;;;;;;;;;;;;;;339961;29;964;-81
2024/01/26 00:57:44;;;;;;;;;;;;;;;;;;341592;29;1299;-81
2024/01/26 00:57:57;;;;;;;;;;;;;;;;;;341474;29;1045;-81
2024/01/26 00:58:07;;;;;;;;;;;;;;;;;;343091;28;939;-81
2024/01/26 00:58:18;;;;;;;;;;;;;;;;;;344151;28;1003;-81
2024/01/26 00:58:28;;;;;;;;;;;;;;;;;;343017;28;1076;-81
2024/01/26 00:58:39;;;;;;;;;;;;;;;;;;342847;28;973;-81
2024/01/26 00:58:49;;;;;;;;;;;;;;;;;;343086;28;983;-81
2024/01/26 00:58:59;;;;;;;;;;;;;;;;;;342820;28;1026;-81
2024/01/26 00:59:11;;;;;;;;;;;;;;;;;;342870;28;1089;-81
2024/01/26 00:59:21;;;;;;;;;;;;;;;;;;342829;28;844;-81
2024/01/26 00:59:31;;;;;;;;;;;;;;;;;;340472;29;971;-82
2024/01/26 00:59:42;;;;;;;;;;;;;;;;;;342697;28;1283;-82
2024/01/26 00:59:52;;;;;;;;;;;;;;;;;;343022;28;1057;-82
2024/01/26 01:00:07;;;;;;;;;;;;;;;;;;342898;28;994;-82
2024/01/26 01:00:17;;;;;;;;;;;;;;;;;;342860;28;1347;-82
2024/01/26 01:00:29;;;;;;;;;;;;;;;;;;344119;28;1007;-82
2024/01/26 01:00:39;;;;;;;;;;;;;;;;;;344397;28;1002;-81
2024/01/26 01:00:49;;;;;;;;;;;;;;;;;;345290;28;1302;-81
2024/01/26 01:00:59;;;;;;;;;;;;;;;;;;343175;28;1362;-81
2024/01/26 01:01:10;;;;;;;;;;;;;;;;;;344056;28;1139;-81
2024/01/26 01:01:20;;;;;;;;;;;;;;;;;;340304;28;1327;-81
2024/01/26 01:01:30;;;;;;;;;;;;;;;;;;341403;29;1285;-81
2024/01/26 01:01:40;;;;;;;;;;;;;;;;;;341725;29;1030;-81
2024/01/26 01:01:51;;;;;;;;;;;;;;;;;;340997;28;1732;-81
2024/01/26 01:02:02;;;;;;;;;;;;;;;;;;340304;28;1670;-81
2024/01/26 01:02:12;;;;;;;;;;;;;;;;;;340186;29;942;-81
2024/01/26 01:02:23;;;;;;;;;;;;;;;;;;341168;29;1289;-81
2024/01/26 01:02:33;;;;;;;;;;;;;;;;;;341475;29;994;-81
2024/01/26 01:02:43;;;;;;;;;;;;;;;;;;343055;28;1018;-81
2024/01/26 01:02:54;;;;;;;;;;;;;;;;;;343971;28;1105;-81
2024/01/26 01:03:04;;;;;;;;;;;;;;;;;;341638;29;1090;-81
2024/01/26 01:03:15;;;;;;;;;;;;;;;;;;342699;28;1444;-81
2024/01/26 01:03:25;;;;;;;;;;;;;;;;;;343031;28;781;-81
2024/01/26 01:03:35;;;;;;;;;;;;;;;;;;342863;28;987;-81
2024/01/26 01:03:46;;;;;;;;;;;;;;;;;;343642;28;999;-81
2024/01/26 01:03:56;;;;;;;;;;;;;;;;;;344763;28;1157;-81
2024/01/26 01:04:06;;;;;;;;;;;;;;;;;;345779;28;943;-81
2024/01/26 01:04:16;;;;;;;;;;;;;;;;;;345547;28;1045;-81
2024/01/26 01:04:27;;;;;;;;;;;;;;;;;;345702;28;1013;-81
2024/01/26 01:04:37;;;;;;;;;;;;;;;;;;345500;28;974;-81
2024/01/26 01:04:47;;;;;;;;;;;;;;;;;;345757;28;1065;-81
2024/01/26 01:04:57;;;;;;;;;;;;;;;;;;344157;28;977;-81
2024/01/26 01:05:07;;;;;;;;;;;;;;;;;;344647;28;930;-81
2024/01/26 01:05:18;;;;;;;;;;;;;;;;;;345299;28;1399;-81
2024/01/26 01:05:28;;;;;;;;;;;;;;;;;;345577;28;1057;-81
2024/01/26 01:05:39;;;;;;;;;;;;;;;;;;345301;28;986;-81
2024/01/26 01:05:49;;;;;;;;;;;;;;;;;;344648;28;982;-81
2024/01/26 01:06:00;;;;;;;;;;;;;;;;;;343800;28;1351;-81
2024/01/26 01:06:11;;;;;;;;;;;;;;;;;;342899;28;1161;-81
2024/01/26 01:06:21;;;;;;;;;;;;;;;;;;340065;29;1131;-81
2024/01/26 01:06:31;;;;;;;;;;;;;;;;;;340293;29;983;-81
2024/01/26 01:06:42;;;;;;;;;;;;;;;;;;341456;29;1078;-81
2024/01/26 01:06:55;;;;;;;;;;;;;;;;;;341694;29;984;-81
2024/01/26 01:07:05;;;;;;;;;;;;;;;;;;340034;29;1301;-81
2024/01/26 01:07:15;;;;;;;;;;;;;;;;;;340393;29;880;-81
2024/01/26 01:07:25;;;;;;;;;;;;;;;;;;340092;29;1026;-81
2024/01/26 01:07:36;;;;;;;;;;;;;;;;;;341582;29;1086;-81
2024/01/26 01:07:46;;;;;;;;;;;;;;;;;;341415;29;1359;-82
2024/01/26 01:07:57;;;;;;;;;;;;;;;;;;342930;28;828;-82
2024/01/26 01:08:07;;;;;;;;;;;;;;;;;;342790;28;971;-82
2024/01/26 01:08:18;;;;;;;;;;;;;;;;;;343081;28;812;-82
2024/01/26 01:08:28;;;;;;;;;;;;;;;;;;344226;28;974;-82
2024/01/26 01:08:38;;;;;;;;;;;;;;;;;;344387;28;987;-82
2024/01/26 01:08:49;;;;;;;;;;;;;;;;;;344051;28;1315;-81
2024/01/26 01:08:59;;;;;;;;;;;;;;;;;;344293;28;1358;-81
2024/01/26 01:09:09;;;;;;;;;;;;;;;;;;344155;28;816;-81
2024/01/26 01:09:20;;;;;;;;;;;;;;;;;;344187;28;994;-81
2024/01/26 01:09:31;;;;;;;;;;;;;;;;;;344170;28;919;-81
2024/01/26 01:09:42;;;;;;;;;;;;;;;;;;344335;28;1050;-81
2024/01/26 01:09:52;;;;;;;;;;;;;;;;;;341464;29;1070;-81
2024/01/26 01:10:02;;;;;;;;;;;;;;;;;;341731;29;749;-81
2024/01/26 01:10:13;;;;;;;;;;;;;;;;;;341463;29;1034;-81
2024/01/26 01:10:24;;;;;;;;;;;;;;;;;;342527;28;1502;-81
2024/01/26 01:10:36;;;;;;;;;;;;;;;;;;343879;28;1335;-81
2024/01/26 01:10:46;;;;;;;;;;;;;;;;;;343590;28;1426;-81
2024/01/26 01:10:57;;;;;;;;;;;;;;;;;;343993;28;1505;-81
2024/01/26 01:11:07;;;;;;;;;;;;;;;;;;344175;28;1378;-81
2024/01/26 01:11:17;;;;;;;;;;;;;;;;;;344074;28;1030;-81
2024/01/26 01:11:27;;;;;;;;;;;;;;;;;;344319;28;982;-81
2024/01/26 01:11:37;;;;;;;;;;;;;;;;;;342666;28;1177;-81
2024/01/26 01:11:47;;;;;;;;;;;;;;;;;;342951;28;1544;-81
2024/01/26 01:11:58;;;;;;;;;;;;;;;;;;339208;28;1198;-81
2024/01/26 01:12:08;;;;;;;;;;;;;;;;;;342845;28;1363;-81
2024/01/26 01:12:18;;;;;;;;;;;;;;;;;;344121;28;1010;-81
2024/01/26 01:12:28;;;;;;;;;;;;;;;;;;344417;28;915;-81
2024/01/26 01:12:39;;;;;;;;;;;;;;;;;;345512;28;959;-81
2024/01/26 01:12:49;;;;;;;;;;;;;;;;;;345744;28;1030;-81
2024/01/26 01:12:59;;;;;;;;;;;;;;;;;;345428;28;1325;-81
2024/01/26 01:13:10;;;;;;;;;;;;;;;;;;345203;28;1539;-81
2024/01/26 01:13:20;;;;;;;;;;;;;;;;;;345571;28;756;-81
2024/01/26 01:13:30;;;;;;;;;;;;;;;;;;342876;28;1137;-81
2024/01/26 01:13:43;;;;;;;;;;;;;;;;;;344050;28;1374;-81
2024/01/26 01:13:54;;;;;;;;;;;;;;;;;;342975;28;955;-81
2024/01/26 01:14:05;;;;;;;;;;;;;;;;;;342787;28;986;-81